Time,TemperatureF,DewpointF,PressureIn,WindDirection,WindDirectionDegrees,WindSpeedMPH,WindSpeedGustMPH,Humidity,HourlyPrecipIn,Conditions,Clouds,dailyrainin,SoftwareType,DateUTC
2013-07-03 00:12:00,91.0,63.0,29.74,South,180,1.0,2.0,39,0.00,,,0.00,,2013-07-03 07:12:00,
2013-07-03 00:22:00,91.0,63.0,29.74,South,180,1.0,3.0,39,0.00,,,0.00,,2013-07-03 07:22:00,
2013-07-03 00:43:00,90.0,63.0,29.73,South,180,0.0,0.0,41,0.00,,,0.00,,2013-07-03 07:43:00,
2013-07-03 01:01:00,89.0,63.0,29.73,South,180,1.0,1.0,42,0.00,,,0.00,,2013-07-03 08:01:00,
2013-07-03 01:11:00,89.0,63.0,29.73,South,180,0.0,0.0,42,0.00,,,0.00,,2013-07-03 08:11:00,
2013-07-03 01:34:00,88.0,63.0,29.73,South,180,0.0,0.0,44,0.00,,,0.00,,2013-07-03 08:34:00,
2013-07-03 01:52:00,88.0,65.0,29.72,South,180,0.0,1.0,46,0.00,,,0.00,,2013-07-03 08:52:00,
2013-07-03 02:01:00,87.0,64.0,29.71,South,180,0.0,0.0,47,0.00,,,0.00,,2013-07-03 09:01:00,
2013-07-03 02:11:00,87.0,64.0,29.71,South,180,0.0,0.0,47,0.00,,,0.00,,2013-07-03 09:11:00,
2013-07-03 02:43:00,86.0,62.0,29.70,South,180,0.0,2.0,45,0.00,,,0.00,,2013-07-03 09:43:00,
2013-07-03 02:52:00,86.0,63.0,29.69,South,180,0.0,0.0,46,0.00,,,0.00,,2013-07-03 09:52:00,
2013-07-03 03:01:00,86.0,64.0,29.70,South,180,1.0,2.0,48,0.00,,,0.00,,2013-07-03 10:01:00,
2013-07-03 03:11:00,85.0,63.0,29.69,South,180,0.0,0.0,48,0.00,,,0.00,,2013-07-03 10:11:00,
2013-07-03 03:33:00,84.0,62.0,29.70,South,180,0.0,0.0,48,0.00,,,0.00,,2013-07-03 10:33:00,
2013-07-03 03:43:00,84.0,63.0,29.70,South,180,0.0,0.0,50,0.00,,,0.00,,2013-07-03 10:43:00,
2013-07-03 03:52:00,84.0,63.0,29.69,South,180,0.0,0.0,50,0.00,,,0.00,,2013-07-03 10:52:00,
2013-07-03 04:33:00,83.0,62.0,29.70,South,180,0.0,0.0,49,0.00,,,0.00,,2013-07-03 11:33:00,
2013-07-03 04:42:00,83.0,62.0,29.70,South,180,0.0,0.0,49,0.00,,,0.00,,2013-07-03 11:42:00,
2013-07-03 04:52:00,83.0,61.0,29.71,South,180,2.0,3.0,48,0.00,,,0.00,,2013-07-03 11:52:00,
2013-07-03 05:02:00,83.0,62.0,29.71,South,180,0.0,0.0,49,0.00,,,0.00,,2013-07-03 12:02:00,
2013-07-03 05:11:00,83.0,62.0,29.71,South,180,0.0,0.0,50,0.00,,,0.00,,2013-07-03 12:11:00,
2013-07-03 05:34:00,83.0,63.0,29.71,South,180,2.0,2.0,51,0.00,,,0.00,,2013-07-03 12:34:00,
2013-07-03 05:42:00,82.0,62.0,29.72,South,180,0.0,0.0,51,0.00,,,0.00,,2013-07-03 12:42:00,
2013-07-03 06:01:00,82.0,62.0,29.72,South,180,0.0,0.0,51,0.00,,,0.00,,2013-07-03 13:01:00,
2013-07-03 06:11:00,82.0,62.0,29.72,South,180,0.0,0.0,51,0.00,,,0.00,,2013-07-03 13:11:00,
2013-07-03 06:33:00,82.0,63.0,29.73,South,180,1.0,2.0,52,0.00,,,0.00,,2013-07-03 13:33:00,
2013-07-03 07:02:00,82.0,64.0,29.73,South,180,0.0,0.0,54,0.00,,,0.00,,2013-07-03 14:02:00,
2013-07-03 07:43:00,81.0,63.0,29.75,North,0,0.0,0.0,55,0.00,,,0.00,,2013-07-03 14:43:00,
2013-07-03 07:53:00,82.0,65.0,29.75,North,0,0.0,0.0,56,0.00,,,0.00,,2013-07-03 14:53:00,
2013-07-03 08:11:00,82.0,64.0,29.75,North,0,2.0,3.0,54,0.00,,,0.00,,2013-07-03 15:11:00,
2013-07-03 08:33:00,84.0,60.0,29.75,ENE,68,3.0,6.0,45,0.00,,,0.00,,2013-07-03 15:33:00,
2013-07-03 08:53:00,85.0,62.0,29.75,ENE,68,0.0,0.0,47,0.00,,,0.00,,2013-07-03 15:53:00,
2013-07-03 09:01:00,86.0,62.0,29.75,SE,135,2.0,3.0,44,0.00,,,0.00,,2013-07-03 16:01:00,
2013-07-03 09:33:00,89.0,61.0,29.76,NE,45,2.0,3.0,40,0.00,,,0.00,,2013-07-03 16:33:00,
2013-07-03 09:43:00,89.0,62.0,29.75,West,270,2.0,3.0,41,0.00,,,0.00,,2013-07-03 16:43:00,
2013-07-03 09:53:00,89.0,62.0,29.75,West,270,3.0,5.0,41,0.00,,,0.00,,2013-07-03 16:53:00,
2013-07-03 10:02:00,89.0,61.0,29.77,SW,225,1.0,2.0,40,0.00,,,0.00,,2013-07-03 17:02:00,
2013-07-03 10:12:00,90.0,63.0,29.77,SW,225,1.0,2.0,41,0.00,,,0.00,,2013-07-03 17:12:00,
2013-07-03 10:34:00,89.0,65.0,29.76,SW,225,0.0,1.0,45,0.00,,,0.00,,2013-07-03 17:34:00,
2013-07-03 10:44:00,89.0,66.0,29.76,SW,225,0.0,1.0,47,0.00,,,0.00,,2013-07-03 17:44:00,
2013-07-03 10:52:00,89.0,66.0,29.75,SW,225,2.0,3.0,47,0.00,,,0.00,,2013-07-03 17:52:00,
2013-07-03 11:02:00,90.0,66.0,29.74,SW,225,3.0,5.0,45,0.00,,,0.00,,2013-07-03 18:02:00,
2013-07-03 11:11:00,90.0,66.0,29.73,SW,225,3.0,6.0,45,0.00,,,0.00,,2013-07-03 18:11:00,
2013-07-03 11:33:00,93.0,64.0,29.75,ESE,113,1.0,3.0,39,0.00,,,0.00,,2013-07-03 18:33:00,
2013-07-03 11:43:00,93.0,64.0,29.75,East,90,1.0,2.0,39,0.00,,,0.00,,2013-07-03 18:43:00,
2013-07-03 11:53:00,93.0,64.0,29.75,South,180,3.0,5.0,38,0.00,,,0.00,,2013-07-03 18:53:00,
2013-07-03 12:33:00,94.0,66.0,29.74,SSE,158,2.0,3.0,40,0.00,,,0.00,,2013-07-03 19:33:00,
2013-07-03 12:44:00,95.0,63.0,29.73,SW,225,2.0,3.0,35,0.00,,,0.00,,2013-07-03 19:44:00,
2013-07-03 12:53:00,96.0,64.0,29.72,SW,225,3.0,7.0,35,0.00,,,0.00,,2013-07-03 19:53:00,
2013-07-03 13:01:00,96.0,59.0,29.72,SSW,203,2.0,3.0,30,0.00,,,0.00,,2013-07-03 20:01:00,
2013-07-03 13:33:00,101.0,61.0,29.71,SW,225,5.0,8.0,27,0.00,,,0.00,,2013-07-03 20:33:00,
2013-07-03 13:43:00,102.0,61.0,29.70,WSW,248,3.0,7.0,26,0.00,,,0.00,,2013-07-03 20:43:00,
2013-07-03 13:53:00,102.0,61.0,29.70,SSW,203,5.0,6.0,26,0.00,,,0.00,,2013-07-03 20:53:00,
2013-07-03 14:01:00,103.0,58.0,29.70,SSW,203,6.0,7.0,23,0.00,,,0.00,,2013-07-03 21:01:00,
2013-07-03 14:11:00,104.0,59.0,29.69,South,180,6.0,8.0,23,0.00,,,0.00,,2013-07-03 21:11:00,
2013-07-03 14:33:00,106.0,60.0,29.68,SSW,203,7.0,13.0,23,0.00,,,0.00,,2013-07-03 21:33:00,
2013-07-03 15:11:00,108.0,60.0,29.66,South,180,3.0,7.0,21,0.00,,,0.00,,2013-07-03 22:11:00,
2013-07-03 15:21:00,108.0,60.0,29.65,SSW,203,5.0,7.0,21,0.00,,,0.00,,2013-07-03 22:21:00,
2013-07-03 15:22:00,108.0,60.0,29.66,SW,225,3.0,9.0,21,0.00,,,0.00,,2013-07-03 22:22:00,
2013-07-03 15:53:00,108.0,60.0,29.65,SSW,203,5.0,7.0,21,0.00,,,0.00,,2013-07-03 22:53:00,
2013-07-03 16:01:00,108.0,60.0,29.65,SSW,203,5.0,7.0,21,0.00,,,0.00,,2013-07-03 23:01:00,
2013-07-03 16:11:00,108.0,60.0,29.65,SSW,203,5.0,7.0,21,0.00,,,0.00,,2013-07-03 23:11:00,
2013-07-03 16:56:00,109.0,60.0,29.61,WSW,248,3.0,7.0,21,0.00,,,0.00,,2013-07-03 23:56:00,
2013-07-03 17:33:00,108.0,58.0,29.59,SW,225,3.0,6.0,20,0.00,,,0.00,,2013-07-04 00:33:00,
2013-07-03 17:43:00,108.0,60.0,29.59,West,270,5.0,7.0,21,0.00,,,0.00,,2013-07-04 00:43:00,
2013-07-03 17:53:00,108.0,58.0,29.59,SW,225,3.0,3.0,20,0.00,,,0.00,,2013-07-04 00:53:00,
2013-07-03 18:01:00,108.0,57.0,29.59,SW,225,2.0,3.0,19,0.00,,,0.00,,2013-07-04 01:01:00,
2013-07-03 18:33:00,108.0,57.0,29.59,SSW,203,5.0,5.0,19,0.00,,,0.00,,2013-07-04 01:33:00,
2013-07-03 18:43:00,107.0,57.0,29.58,South,180,5.0,7.0,20,0.00,,,0.00,,2013-07-04 01:43:00,
2013-07-03 19:11:00,106.0,57.0,29.58,South,180,1.0,2.0,20,0.00,,,0.00,,2013-07-04 02:11:00,
2013-07-03 20:33:00,100.0,61.0,29.59,South,180,3.0,5.0,28,0.00,,,0.00,,2013-07-04 03:33:00,
2013-07-03 20:43:00,100.0,61.0,29.59,South,180,6.0,9.0,28,0.00,,,0.00,,2013-07-04 03:43:00,
2013-07-03 21:01:00,98.0,60.0,29.60,South,180,6.0,12.0,29,0.00,,,0.00,,2013-07-04 04:01:00,
2013-07-03 21:11:00,98.0,60.0,29.60,South,180,2.0,3.0,29,0.00,,,0.00,,2013-07-04 04:11:00,
2013-07-03 21:22:00,97.0,60.0,29.62,South,180,3.0,6.0,30,0.00,,,0.00,,2013-07-04 04:22:00,
2013-07-03 21:33:00,97.0,61.0,29.61,South,180,3.0,6.0,31,0.00,,,0.00,,2013-07-04 04:33:00,
2013-07-03 21:43:00,96.0,62.0,29.62,SW,225,3.0,6.0,33,0.00,,,0.00,,2013-07-04 04:43:00,
2013-07-03 21:52:00,95.0,61.0,29.62,SSW,203,2.0,5.0,33,0.00,,,0.00,,2013-07-04 04:52:00,
2013-07-03 22:01:00,95.0,61.0,29.63,SW,225,2.0,3.0,33,0.00,,,0.00,,2013-07-04 05:01:00,
2013-07-03 22:12:00,94.0,60.0,29.63,SSW,203,3.0,5.0,33,0.00,,,0.00,,2013-07-04 05:12:00,
2013-07-03 22:21:00,94.0,60.0,29.63,SSW,203,3.0,5.0,33,0.00,,,0.00,,2013-07-04 05:21:00,
2013-07-03 22:32:00,93.0,60.0,29.63,SSW,203,5.0,6.0,33,0.00,,,0.00,,2013-07-04 05:32:00,
2013-07-03 22:42:00,93.0,60.0,29.63,South,180,1.0,3.0,33,0.00,,,0.00,,2013-07-04 05:42:00,
2013-07-03 22:52:00,93.0,60.0,29.63,South,180,2.0,3.0,33,0.00,,,0.00,,2013-07-04 05:52:00,
2013-07-03 23:01:00,93.0,61.0,29.63,South,180,2.0,3.0,35,0.00,,,0.00,,2013-07-04 06:01:00,
2013-07-03 23:11:00,92.0,60.0,29.63,South,180,2.0,3.0,35,0.00,,,0.00,,2013-07-04 06:11:00,
2013-07-03 23:22:00,92.0,61.0,29.63,South,180,2.0,3.0,36,0.00,,,0.00,,2013-07-04 06:22:00,
2013-07-03 23:33:00,92.0,62.0,29.63,South,180,2.0,3.0,37,0.00,,,0.00,,2013-07-04 06:33:00,
2013-07-03 23:42:00,91.0,62.0,29.62,South,180,2.0,3.0,38,0.00,,,0.00,,2013-07-04 06:42:00,